Time;durP1;ratioP1;P1;durP2;ratioP2;P2;SDS_P1;SDS_P2;PMS_P1;PMS_P2;Temp;Humidity;BMP_temperature;BMP_pressure;BME280_temperature;BME280_humidity;BME280_pressure;Samples;Min_cycle;Max_cycle;Signal;HPM_P1;HPM_P2
2023/03/20 00:02:28;;;;;;;;;;;;;;;12.48;38.46;100460.09;5350988;32;35953;-79
2023/03/20 00:05:30;;;;;;;;;;;;;;;12.82;37.80;100441.88;5348633;32;36244;-62
2023/03/20 00:08:32;;;;;;;;;;;;;;;12.66;38.39;100455.78;5364233;32;35690;-78
2023/03/20 00:11:35;;;;;;;;;;;;;;;11.92;39.86;100446.84;5348204;32;35614;-62
2023/03/20 00:14:37;;;;;;;;;;;;;;;11.83;40.09;100445.47;5365384;32;36049;-62
2023/03/20 00:17:39;;;;;;;;;;;;;;;12.56;38.71;100451.88;5341961;32;44559;-62
2023/03/20 00:20:41;;;;;;;;;;;;;;;12.82;38.26;100450.66;5374828;32;36039;-77
2023/03/20 00:23:43;;;;;;;;;;;;;;;12.70;38.25;100449.44;5355604;32;34562;-64
2023/03/20 00:26:45;;;;;;;;;;;;;;;12.71;38.28;100447.66;5369427;32;36731;-62
2023/03/20 00:29:47;;;;;;;;;;;;;;;12.18;38.99;100446.56;5353033;32;35597;-62
2023/03/20 00:32:50;;;;;;;;;;;;;;;12.38;38.85;100453.56;5343991;32;36329;-63
2023/03/20 00:35:51;;;;;;;;;;;;;;;12.30;38.83;100437.25;5360436;32;34797;-62
2023/03/20 00:38:55;;;;;;;;;;;;;;;12.94;38.06;100443.91;5370036;32;35458;-72
2023/03/20 00:41:59;;;;;;;;;;;;;;;12.52;38.43;100442.38;5356831;32;37766;-71
2023/03/20 00:45:01;;;;;;;;;;;;;;;12.26;39.16;100445.34;5354467;32;35587;-61
2023/03/20 00:48:03;;;;;;;;;;;;;;;12.24;39.37;100450.69;5367066;32;36755;-61
2023/03/20 00:51:05;;;;;;;;;;;;;;;12.24;39.06;100450.69;5346603;32;35480;-77
2023/03/20 00:54:14;;;;;;;;;;;;;;;11.19;41.35;100448.13;5359103;32;34494;-78
2023/03/20 00:57:19;;;;;;;;;;;;;;;11.90;40.44;100446.91;5355344;32;44904;-78
2023/03/20 01:00:26;;;;;;;;;;;;;;;12.36;39.00;100446.63;5348728;32;35495;-71
2023/03/20 01:03:28;;;;;;;;;;;;;;;11.65;40.11;100447.06;5352685;32;35607;-75
2023/03/20 01:06:31;;;;;;;;;;;;;;;12.05;39.70;100444.53;5328442;32;34633;-61
2023/03/20 01:09:33;;;;;;;;;;;;;;;11.82;39.86;100441.13;5347161;32;35323;-77
2023/03/20 01:12:36;;;;;;;;;;;;;;;12.41;38.87;100444.66;5346208;32;36048;-78
2023/03/20 01:15:39;;;;;;;;;;;;;;;11.74;39.95;100444.97;5350852;32;48034;-77
2023/03/20 01:18:41;;;;;;;;;;;;;;;11.31;41.05;100452.03;5368774;32;35637;-79
2023/03/20 01:21:43;;;;;;;;;;;;;;;11.69;40.12;100434.63;5370502;32;35297;-77
2023/03/20 01:24:46;;;;;;;;;;;;;;;12.41;38.70;100450.78;5358322;32;35198;-79
2023/03/20 01:27:52;;;;;;;;;;;;;;;11.86;40.43;100449.75;5346187;32;36891;-64
2023/03/20 01:30:54;;;;;;;;;;;;;;;11.91;39.81;100426.69;5352614;32;35621;-62
2023/03/20 01:33:56;;;;;;;;;;;;;;;11.83;40.60;100442.81;5353436;32;35503;-62
2023/03/20 01:36:58;;;;;;;;;;;;;;;11.76;40.31;100441.34;5371708;32;35620;-62
2023/03/20 01:40:00;;;;;;;;;;;;;;;11.89;40.44;100437.28;5364489;32;36513;-61
2023/03/20 01:43:02;;;;;;;;;;;;;;;11.89;40.33;100429.38;5343575;32;35663;-63
2023/03/20 01:46:05;;;;;;;;;;;;;;;11.56;40.96;100428.19;5386304;32;35654;-79
2023/03/20 01:49:08;;;;;;;;;;;;;;;11.47;41.43;100425.97;5365650;32;35372;-77
2023/03/20 01:52:10;;;;;;;;;;;;;;;11.51;41.13;100424.88;5368359;32;46911;-61
2023/03/20 01:55:12;;;;;;;;;;;;;;;11.75;40.72;100421.22;5362505;32;35313;-62
2023/03/20 01:58:19;;;;;;;;;;;;;;;11.55;40.90;100418.59;5351608;32;36121;-62
2023/03/20 02:01:21;;;;;;;;;;;;;;;11.76;40.64;100417.66;5361352;32;35661;-77
2023/03/20 02:04:24;;;;;;;;;;;;;;;12.20;39.26;100425.41;5341447;32;35848;-62
2023/03/20 02:07:26;;;;;;;;;;;;;;;12.08;39.07;100418.03;5342816;32;36732;-78
2023/03/20 02:10:29;;;;;;;;;;;;;;;11.39;40.85;100426.25;5355417;32;35878;-76
2023/03/20 02:13:31;;;;;;;;;;;;;;;12.27;39.22;100413.66;5356711;32;35615;-61
2023/03/20 02:16:33;;;;;;;;;;;;;;;11.80;39.98;100423.66;5358422;32;34790;-79
2023/03/20 02:19:53;;;;;;;;;;;;;;;11.59;40.20;100417.50;5349583;32;35589;-60
2023/03/20 02:23:01;;;;;;;;;;;;;;;11.46;40.51;100424.22;5365187;32;35285;-62
2023/03/20 02:26:16;;;;;;;;;;;;;;;11.18;41.69;100409.59;5352609;32;35531;-61
2023/03/20 02:29:33;;;;;;;;;;;;;;;11.51;40.60;100417.84;5345417;32;45396;-61
2023/03/20 02:32:54;;;;;;;;;;;;;;;11.48;40.75;100412.72;5351151;32;34867;-63
2023/03/20 02:36:18;;;;;;;;;;;;;;;11.47;41.27;100404.91;5360309;32;35663;-61
2023/03/20 02:39:23;;;;;;;;;;;;;;;11.83;40.01;100407.75;5352207;32;35481;-64
2023/03/20 02:42:28;;;;;;;;;;;;;;;11.46;40.31;100404.00;5350842;32;35645;-62
2023/03/20 02:45:38;;;;;;;;;;;;;;;11.38;40.71;100408.75;5355857;32;35564;-62
2023/03/20 02:48:46;;;;;;;;;;;;;;;11.15;41.53;100407.09;5360641;32;44414;-78
2023/03/20 02:52:11;;;;;;;;;;;;;;;11.88;39.73;100403.13;5346590;32;35863;-80
2023/03/20 02:55:16;;;;;;;;;;;;;;;12.04;39.35;100395.38;5350419;32;45442;-78
2023/03/20 02:58:28;;;;;;;;;;;;;;;10.94;42.01;100392.16;5357007;32;36432;-71
2023/03/20 03:01:32;;;;;;;;;;;;;;;10.85;41.73;100396.87;5336243;32;35500;-78
2023/03/20 03:04:36;;;;;;;;;;;;;;;10.43;42.83;100403.81;5343109;32;35207;-77
2023/03/20 03:07:38;;;;;;;;;;;;;;;10.68;42.56;100395.84;5337655;32;35605;-61
2023/03/20 03:10:44;;;;;;;;;;;;;;;10.76;42.40;100392.00;5367495;32;44799;-77
2023/03/20 03:13:47;;;;;;;;;;;;;;;10.87;42.12;100395.97;5342366;32;35632;-62
2023/03/20 03:16:49;;;;;;;;;;;;;;;11.37;40.85;100397.38;5357221;32;34770;-61
2023/03/20 03:19:56;;;;;;;;;;;;;;;10.70;42.62;100405.41;5344060;32;35593;-70
2023/03/20 03:22:58;;;;;;;;;;;;;;;10.70;42.42;100391.41;5365690;32;35382;-62
2023/03/20 03:26:01;;;;;;;;;;;;;;;11.16;40.99;100400.91;5362891;32;35586;-76
2023/03/20 03:29:10;;;;;;;;;;;;;;;10.96;41.26;100406.13;5344268;32;35709;-61
2023/03/20 03:32:29;;;;;;;;;;;;;;;11.27;41.03;100409.22;5354438;32;44651;-62
2023/03/20 03:35:31;;;;;;;;;;;;;;;11.17;40.96;100391.25;5342232;32;35936;-77
2023/03/20 03:38:43;;;;;;;;;;;;;;;11.66;40.43;100406.69;5357183;32;34911;-61
2023/03/20 03:41:48;;;;;;;;;;;;;;;11.41;40.59;100413.91;5370028;32;46986;-71
2023/03/20 03:44:53;;;;;;;;;;;;;;;11.02;41.93;100413.78;5345608;32;36080;-61
2023/03/20 03:48:04;;;;;;;;;;;;;;;10.31;43.12;100415.66;5384722;32;36096;-63
2023/03/20 03:51:07;;;;;;;;;;;;;;;10.50;42.90;100416.69;5338531;32;34929;-77
2023/03/20 03:54:10;;;;;;;;;;;;;;;10.63;43.13;100427.59;5348630;32;44880;-62
2023/03/20 03:57:13;;;;;;;;;;;;;;;11.24;41.59;100411.97;5356571;32;35442;-61
2023/03/20 04:00:16;;;;;;;;;;;;;;;11.45;41.03;100418.09;5342208;32;35593;-62
2023/03/20 04:03:19;;;;;;;;;;;;;;;11.11;41.88;100422.12;5359163;32;35937;-78
2023/03/20 04:06:21;;;;;;;;;;;;;;;11.04;42.36;100432.97;5338488;32;35685;-70
2023/03/20 04:09:22;;;;;;;;;;;;;;;11.91;40.24;100427.56;5371139;32;35444;-77
2023/03/20 04:12:28;;;;;;;;;;;;;;;12.10;39.39;100430.22;5351035;32;35521;-78
2023/03/20 04:15:30;;;;;;;;;;;;;;;11.66;40.30;100430.37;5354877;32;36584;-77
2023/03/20 04:18:32;;;;;;;;;;;;;;;10.37;43.17;100443.44;5358877;32;35551;-78
2023/03/20 04:21:34;;;;;;;;;;;;;;;11.55;40.83;100437.88;5367376;32;36181;-78
2023/03/20 04:24:36;;;;;;;;;;;;;;;11.36;40.63;100423.75;5370007;32;35575;-61
2023/03/20 04:27:38;;;;;;;;;;;;;;;10.62;42.17;100446.00;5346782;32;38827;-61
2023/03/20 04:30:40;;;;;;;;;;;;;;;10.61;42.62;100441.69;5378522;32;44653;-79
2023/03/20 04:33:42;;;;;;;;;;;;;;;10.26;43.52;100438.62;5357920;32;35429;-77
2023/03/20 04:36:44;;;;;;;;;;;;;;;10.46;42.97;100446.59;5367340;32;35467;-77
2023/03/20 04:39:46;;;;;;;;;;;;;;;10.81;42.28;100433.87;5361240;32;35372;-63
2023/03/20 04:42:48;;;;;;;;;;;;;;;11.49;41.11;100445.16;5356686;32;36684;-62
2023/03/20 04:45:50;;;;;;;;;;;;;;;10.30;43.29;100454.22;5385826;32;36506;-78
2023/03/20 04:48:53;;;;;;;;;;;;;;;11.05;41.77;100440.78;5356499;32;36060;-61
2023/03/20 04:51:55;;;;;;;;;;;;;;;10.50;42.81;100444.75;5366817;32;35341;-62
2023/03/20 04:54:57;;;;;;;;;;;;;;;10.53;42.82;100444.59;5360573;32;36437;-76
2023/03/20 04:57:59;;;;;;;;;;;;;;;10.61;42.62;100442.53;5360941;32;35845;-62
2023/03/20 05:01:01;;;;;;;;;;;;;;;10.45;43.05;100444.03;5370382;32;36398;-79
2023/03/20 05:04:03;;;;;;;;;;;;;;;10.13;43.86;100453.94;5342722;32;35487;-79
2023/03/20 05:07:05;;;;;;;;;;;;;;;10.65;42.88;100452.03;5360639;32;35692;-77
2023/03/20 05:10:07;;;;;;;;;;;;;;;9.75;44.49;100457.91;5357562;32;35262;-79
2023/03/20 05:13:09;;;;;;;;;;;;;;;10.47;43.56;100464.09;5371835;32;44533;-63
2023/03/20 05:16:11;;;;;;;;;;;;;;;9.62;45.86;100460.09;5373185;32;35721;-79
2023/03/20 05:19:13;;;;;;;;;;;;;;;10.28;44.07;100463.06;5357511;32;36267;-77
2023/03/20 05:22:15;;;;;;;;;;;;;;;10.38;43.76;100472.31;5386797;32;34936;-77
2023/03/20 05:25:17;;;;;;;;;;;;;;;10.20;44.36;100475.59;5338386;32;36197;-63
2023/03/20 05:28:19;;;;;;;;;;;;;;;10.44;43.99;100474.72;5365710;32;34803;-78
2023/03/20 05:31:22;;;;;;;;;;;;;;;10.24;44.28;100482.44;5353478;32;35309;-77
2023/03/20 05:34:24;;;;;;;;;;;;;;;10.21;44.62;100475.53;5364272;32;35642;-79
2023/03/20 05:37:26;;;;;;;;;;;;;;;10.07;45.27;100476.94;5356727;32;36903;-80
2023/03/20 05:40:28;;;;;;;;;;;;;;;10.06;45.05;100462.09;5354538;32;36295;-78
2023/03/20 05:43:30;;;;;;;;;;;;;;;10.69;44.03;100474.66;5368221;32;35918;-62
2023/03/20 05:46:32;;;;;;;;;;;;;;;10.72;44.04;100478.94;5347939;32;35470;-62
2023/03/20 05:49:34;;;;;;;;;;;;;;;11.29;42.19;100464.41;5375283;32;35459;-78
2023/03/20 05:52:36;;;;;;;;;;;;;;;11.57;41.97;100461.47;5350286;32;35230;-77
2023/03/20 05:55:38;;;;;;;;;;;;;;;11.53;41.90;100471.31;5365703;32;35617;-64
2023/03/20 05:58:41;;;;;;;;;;;;;;;12.28;40.15;100462.78;5366443;32;38422;-78
2023/03/20 06:01:43;;;;;;;;;;;;;;;11.95;40.63;100475.69;5348393;32;35688;-62
2023/03/20 06:04:45;;;;;;;;;;;;;;;12.70;39.14;100465.28;5366903;32;36638;-62
2023/03/20 06:07:47;;;;;;;;;;;;;;;11.97;40.20;100484.37;5351809;32;35776;-63
2023/03/20 06:10:49;;;;;;;;;;;;;;;12.31;39.79;100486.41;5371952;32;35413;-62
2023/03/20 06:13:53;;;;;;;;;;;;;;;12.08;40.54;100497.09;5367975;32;35408;-61
2023/03/20 06:16:59;;;;;;;;;;;;;;;11.90;40.35;100493.44;5376086;32;38164;-78
2023/03/20 06:20:01;;;;;;;;;;;;;;;11.89;40.76;100497.00;5368573;32;34698;-79
2023/03/20 06:23:03;;;;;;;;;;;;;;;11.94;40.76;100489.78;5351589;32;35625;-62
2023/03/20 06:26:05;;;;;;;;;;;;;;;13.15;38.34;100489.56;5370735;32;36840;-78
2023/03/20 06:29:07;;;;;;;;;;;;;;;12.27;38.96;100490.06;5366446;32;34619;-62
2023/03/20 06:32:11;;;;;;;;;;;;;;;12.86;38.02;100489.13;5361280;32;46543;-78
2023/03/20 06:35:13;;;;;;;;;;;;;;;13.81;36.36;100492.44;5341228;32;35511;-78
2023/03/20 06:38:15;;;;;;;;;;;;;;;14.53;35.12;100481.63;5353049;32;35316;-65
2023/03/20 06:41:17;;;;;;;;;;;;;;;14.96;34.63;100474.00;5359589;32;35488;-63
2023/03/20 06:44:35;;;;;;;;;;;;;;;14.89;34.57;100484.06;5349668;32;35675;-62
2023/03/20 06:47:37;;;;;;;;;;;;;;;14.87;34.24;100493.00;5370236;32;35284;-80
2023/03/20 06:50:39;;;;;;;;;;;;;;;15.05;33.88;100492.00;5326492;32;45390;-78
2023/03/20 06:53:43;;;;;;;;;;;;;;;14.52;35.41;100506.38;5379700;32;35515;-81
2023/03/20 06:56:45;;;;;;;;;;;;;;;14.93;34.63;100495.31;5356808;32;36170;-64
2023/03/20 06:59:47;;;;;;;;;;;;;;;16.38;32.36;100480.69;5339543;32;34626;-59
2023/03/20 07:02:49;;;;;;;;;;;;;;;15.68;33.37;100494.59;5369997;32;34866;-76
2023/03/20 07:05:51;;;;;;;;;;;;;;;16.59;31.65;100487.31;5336170;32;35047;-61
2023/03/20 07:08:53;;;;;;;;;;;;;;;15.41;33.58;100496.16;5367365;32;34756;-62
2023/03/20 07:11:55;;;;;;;;;;;;;;;15.53;33.33;100498.13;5346943;32;35605;-63
2023/03/20 07:14:57;;;;;;;;;;;;;;;16.10;32.75;100493.00;5366795;32;34980;-62
2023/03/20 07:18:05;;;;;;;;;;;;;;;16.30;32.11;100497.09;5361797;32;34815;-70
2023/03/20 07:21:07;;;;;;;;;;;;;;;16.36;31.28;100501.16;5348052;32;35950;-62
2023/03/20 07:24:09;;;;;;;;;;;;;;;16.10;31.72;100497.41;5369159;32;44591;-65
2023/03/20 07:27:11;;;;;;;;;;;;;;;16.86;30.55;100495.38;5360783;32;34781;-77
2023/03/20 07:30:16;;;;;;;;;;;;;;;15.63;32.62;100498.44;5369438;32;35063;-68
2023/03/20 07:33:19;;;;;;;;;;;;;;;16.47;31.46;100498.69;5359652;32;34704;-62
2023/03/20 07:36:21;;;;;;;;;;;;;;;18.39;28.25;100486.03;5361922;32;34697;-65
2023/03/20 07:39:23;;;;;;;;;;;;;;;17.44;29.35;100486.28;5351920;32;36316;-63
2023/03/20 07:42:25;;;;;;;;;;;;;;;18.77;27.48;100482.50;5351741;32;34832;-65
2023/03/20 07:45:27;;;;;;;;;;;;;;;18.72;27.47;100489.13;5369140;32;35348;-79
2023/03/20 07:48:30;;;;;;;;;;;;;;;17.48;29.46;100486.97;5350419;32;36426;-79
2023/03/20 07:51:32;;;;;;;;;;;;;;;18.45;28.49;100494.56;5385590;32;35193;-71
2023/03/20 07:54:34;;;;;;;;;;;;;;;18.29;28.63;100485.00;5351692;32;34573;-69
2023/03/20 07:57:36;;;;;;;;;;;;;;;19.32;27.37;100489.16;5362076;32;34733;-62
2023/03/20 08:00:38;;;;;;;;;;;;;;;18.17;28.81;100485.84;5368464;32;45769;-64
2023/03/20 08:03:40;;;;;;;;;;;;;;;18.70;27.32;100493.72;5356495;32;43622;-63
2023/03/20 08:06:42;;;;;;;;;;;;;;;18.91;27.09;100486.84;5362541;32;36387;-64
2023/03/20 08:09:44;;;;;;;;;;;;;;;19.62;26.00;100493.19;5357110;32;34564;-61
2023/03/20 08:12:46;;;;;;;;;;;;;;;20.05;25.19;100497.94;5379714;32;34703;-61
2023/03/20 08:15:48;;;;;;;;;;;;;;;18.22;27.76;100504.97;5350787;32;35490;-68
2023/03/20 08:18:52;;;;;;;;;;;;;;;17.38;28.79;100505.28;5364720;32;34821;-61
2023/03/20 08:21:53;;;;;;;;;;;;;;;18.35;26.97;100497.00;5371651;32;35999;-70
2023/03/20 08:24:55;;;;;;;;;;;;;;;18.62;26.23;100496.88;5360215;32;34825;-74
2023/03/20 08:27:59;;;;;;;;;;;;;;;17.64;27.33;100502.72;5374037;32;36291;-59
2023/03/20 08:31:02;;;;;;;;;;;;;;;18.55;26.29;100506.28;5359260;32;34784;-72
2023/03/20 08:34:04;;;;;;;;;;;;;;;17.99;26.70;100503.06;5378067;32;33887;-76
2023/03/20 08:37:06;;;;;;;;;;;;;;;17.23;27.85;100504.50;5362557;32;35350;-67
2023/03/20 08:40:09;;;;;;;;;;;;;;;17.26;27.99;100509.62;5373723;32;44626;-60
2023/03/20 08:43:11;;;;;;;;;;;;;;;17.22;27.84;100508.09;5371176;32;36277;-77
2023/03/20 08:46:13;;;;;;;;;;;;;;;17.31;28.49;100507.50;5357120;32;34769;-60
2023/03/20 08:49:15;;;;;;;;;;;;;;;17.46;28.33;100508.31;5382850;32;36105;-70
2023/03/20 08:52:18;;;;;;;;;;;;;;;17.21;28.47;100513.53;5369098;32;34014;-81
2023/03/20 08:55:19;;;;;;;;;;;;;;;17.05;28.78;100519.81;5366348;32;34344;-65
2023/03/20 08:58:22;;;;;;;;;;;;;;;17.53;28.41;100516.75;5362594;32;34853;-64
2023/03/20 09:01:24;;;;;;;;;;;;;;;18.63;26.90;100517.22;5357828;32;34875;-62
2023/03/20 09:04:39;;;;;;;;;;;;;;;19.65;25.23;100508.97;5356419;32;44499;-61
2023/03/20 09:07:41;;;;;;;;;;;;;;;18.71;26.21;100520.22;5348358;32;35020;-63
2023/03/20 09:10:43;;;;;;;;;;;;;;;17.08;28.57;100509.97;5373499;32;35788;-72
2023/03/20 09:13:45;;;;;;;;;;;;;;;18.77;26.21;100522.44;5345907;32;34768;-75
2023/03/20 09:16:47;;;;;;;;;;;;;;;17.21;28.33;100526.81;5359716;32;34601;-61
2023/03/20 09:19:49;;;;;;;;;;;;;;;18.52;26.42;100525.09;5354767;32;34857;-81
2023/03/20 09:22:51;;;;;;;;;;;;;;;17.68;26.97;100522.84;5359068;32;36279;-64
2023/03/20 09:25:53;;;;;;;;;;;;;;;17.75;27.61;100521.50;5364611;32;36092;-63
2023/03/20 09:28:55;;;;;;;;;;;;;;;18.63;26.16;100525.22;5358627;32;34721;-79
2023/03/20 09:31:57;;;;;;;;;;;;;;;16.92;28.22;100526.84;5371339;32;34747;-73
2023/03/20 09:35:00;;;;;;;;;;;;;;;17.21;27.95;100524.16;5357719;32;35100;-74
2023/03/20 09:38:02;;;;;;;;;;;;;;;18.93;25.59;100508.88;5373170;32;37362;-63
2023/03/20 09:41:04;;;;;;;;;;;;;;;19.38;25.37;100512.66;5355942;32;34662;-85
2023/03/20 09:44:12;;;;;;;;;;;;;;;19.18;25.47;100515.94;5357501;32;35681;-78
2023/03/20 09:47:24;;;;;;;;;;;;;;;19.42;25.00;100503.50;5376854;32;44249;-61
2023/03/20 09:50:29;;;;;;;;;;;;;;;19.70;24.91;100499.62;5362269;32;36259;-70
2023/03/20 09:53:40;;;;;;;;;;;;;;;20.42;24.01;100501.28;5371298;32;36433;-65
2023/03/20 09:56:43;;;;;;;;;;;;;;;21.05;23.33;100486.44;5350811;32;44728;-67
2023/03/20 09:59:45;;;;;;;;;;;;;;;20.44;24.07;100502.84;5352024;32;35458;-72
2023/03/20 10:02:49;;;;;;;;;;;;;;;20.77;23.65;100501.19;5366861;32;34855;-62
2023/03/20 10:06:05;;;;;;;;;;;;;;;20.55;24.15;100510.91;5349174;32;36137;-65
2023/03/20 10:09:19;;;;;;;;;;;;;;;20.14;24.96;100502.56;5351946;32;33784;-63
2023/03/20 10:12:34;;;;;;;;;;;;;;;20.98;23.90;100499.44;5355929;32;35272;-82
2023/03/20 10:15:46;;;;;;;;;;;;;;;19.71;25.49;100503.19;5375905;32;34697;-67
2023/03/20 10:18:50;;;;;;;;;;;;;;;21.29;23.98;100503.19;5361102;32;38333;-75
2023/03/20 10:21:57;;;;;;;;;;;;;;;21.11;23.80;100499.31;5356262;32;35908;-75
2023/03/20 10:24:59;;;;;;;;;;;;;;;19.93;25.84;100500.56;5369349;32;35823;-65
2023/03/20 10:28:06;;;;;;;;;;;;;;;21.89;23.30;100498.19;5360855;32;34942;-62
2023/03/20 10:31:15;;;;;;;;;;;;;;;21.68;23.30;100494.66;5370239;32;35845;-61
2023/03/20 10:34:33;;;;;;;;;;;;;;;22.44;22.34;100494.34;5359583;32;46498;-69
2023/03/20 10:37:42;;;;;;;;;;;;;;;21.56;23.52;100497.38;5341659;32;35968;-72
2023/03/20 10:40:44;;;;;;;;;;;;;;;22.15;22.97;100493.31;5353727;32;46572;-71
2023/03/20 10:43:49;;;;;;;;;;;;;;;18.60;27.21;100506.78;5353636;32;34766;-70
2023/03/20 10:46:51;;;;;;;;;;;;;;;20.33;25.31;100493.97;5356805;32;36437;-79
2023/03/20 10:49:55;;;;;;;;;;;;;;;20.74;24.68;100488.94;5345284;32;33951;-63
2023/03/20 10:52:57;;;;;;;;;;;;;;;20.04;25.19;100490.91;5362038;32;34553;-71
2023/03/20 10:56:07;;;;;;;;;;;;;;;20.48;25.28;100485.66;5368308;32;36215;-61
2023/03/20 10:59:14;;;;;;;;;;;;;;;18.92;27.01;100484.06;5366436;32;44710;-75
2023/03/20 11:02:17;;;;;;;;;;;;;;;19.44;26.52;100480.22;5349850;32;36018;-62
2023/03/20 11:05:23;;;;;;;;;;;;;;;19.74;26.02;100474.44;5320598;32;35867;-83
2023/03/20 11:08:29;;;;;;;;;;;;;;;21.21;24.44;100470.00;5335926;32;34764;-65
2023/03/20 11:11:33;;;;;;;;;;;;;;;21.75;23.30;100443.19;5366208;32;35884;-63
2023/03/20 11:14:36;;;;;;;;;;;;;;;20.73;24.77;100454.31;5355274;32;35003;-68
2023/03/20 11:17:38;;;;;;;;;;;;;;;20.49;25.13;100459.81;5328789;32;43663;-69
2023/03/20 11:20:49;;;;;;;;;;;;;;;20.86;24.70;100451.50;5343386;32;34688;-69
2023/03/20 11:23:54;;;;;;;;;;;;;;;20.34;25.65;100445.81;5361135;32;36128;-70
2023/03/20 11:27:04;;;;;;;;;;;;;;;20.96;24.62;100449.78;5364051;32;34980;-63
2023/03/20 11:30:07;;;;;;;;;;;;;;;21.28;24.33;100440.00;5358844;32;34968;-66
2023/03/20 11:33:09;;;;;;;;;;;;;;;20.09;25.84;100440.69;5360917;32;46567;-72
2023/03/20 11:36:22;;;;;;;;;;;;;;;21.25;24.65;100437.56;5354730;32;35425;-85
2023/03/20 11:39:28;;;;;;;;;;;;;;;21.04;24.74;100421.47;5369108;32;34664;-61
2023/03/20 11:42:30;;;;;;;;;;;;;;;21.44;24.23;100420.00;5376750;32;35061;-84
2023/03/20 11:45:42;;;;;;;;;;;;;;;23.36;22.10;100421.81;5376955;32;36086;-73
2023/03/20 11:48:44;;;;;;;;;;;;;;;23.52;21.84;100415.88;5378402;32;43456;-67
2023/03/20 11:51:46;;;;;;;;;;;;;;;23.06;22.48;100420.13;5345648;32;35283;-65
2023/03/20 11:54:49;;;;;;;;;;;;;;;21.53;24.10;100430.78;5369599;32;35008;-61
2023/03/20 11:57:54;;;;;;;;;;;;;;;21.87;23.98;100426.09;5328502;32;35388;-63
2023/03/20 12:00:56;;;;;;;;;;;;;;;21.05;24.85;100417.81;5358372;32;35111;-78
2023/03/20 12:04:03;;;;;;;;;;;;;;;22.08;23.64;100418.03;5329140;32;35418;-63
2023/03/20 12:07:11;;;;;;;;;;;;;;;22.84;22.86;100410.44;5346026;32;34947;-77
2023/03/20 12:10:13;;;;;;;;;;;;;;;22.18;23.56;100415.44;5347105;32;45742;-77
2023/03/20 12:13:17;;;;;;;;;;;;;;;21.99;23.97;100401.94;5344425;32;35167;-62
2023/03/20 12:16:20;;;;;;;;;;;;;;;22.73;22.88;100389.13;5350297;32;35404;-64
2023/03/20 12:19:23;;;;;;;;;;;;;;;21.66;24.18;100403.00;5349577;32;36104;-78
2023/03/20 12:22:27;;;;;;;;;;;;;;;22.76;22.94;100399.56;5361582;32;34838;-81
2023/03/20 12:25:34;;;;;;;;;;;;;;;22.20;23.61;100402.75;5344856;32;34773;-65
2023/03/20 12:28:45;;;;;;;;;;;;;;;21.22;24.63;100407.56;5349066;32;34866;-64
2023/03/20 12:32:26;;;;;;;;;;;;;;;21.46;24.56;100389.50;5366219;32;46505;-74
2023/03/20 12:35:30;;;;;;;;;;;;;;;20.55;25.27;100404.09;5306592;32;34667;-75
2023/03/20 12:38:33;;;;;;;;;;;;;;;20.55;25.38;100393.41;5324740;32;34814;-60
2023/03/20 12:41:38;;;;;;;;;;;;;;;19.75;26.32;100398.81;5350659;32;36149;-64
2023/03/20 12:44:59;;;;;;;;;;;;;;;20.02;26.57;100398.47;5374416;32;44458;-75
2023/03/20 12:48:04;;;;;;;;;;;;;;;21.45;24.50;100393.16;5362354;32;34941;-63
2023/03/20 12:51:11;;;;;;;;;;;;;;;21.11;25.28;100392.41;5349975;32;36461;-79
2023/03/20 12:54:14;;;;;;;;;;;;;;;21.10;24.85;100393.37;5384363;32;43417;-81
2023/03/20 12:57:31;;;;;;;;;;;;;;;19.94;26.36;100395.56;5367578;32;34794;-63
2023/03/20 13:00:48;;;;;;;;;;;;;;;20.34;26.19;100384.41;5354175;32;34626;-61
2023/03/20 13:03:53;;;;;;;;;;;;;;;21.51;24.51;100381.94;5354917;32;34614;-62
2023/03/20 13:06:55;;;;;;;;;;;;;;;21.78;24.13;100378.72;5348003;32;36327;-61
2023/03/20 13:10:03;;;;;;;;;;;;;;;22.43;23.25;100377.50;5361722;32;34697;-63
2023/03/20 13:13:05;;;;;;;;;;;;;;;20.87;25.34;100357.91;5370943;32;36201;-78
2023/03/20 13:16:16;;;;;;;;;;;;;;;22.15;23.94;100372.87;5354123;32;34856;-59
2023/03/20 13:19:24;;;;;;;;;;;;;;;21.37;24.77;100364.38;5371801;32;38790;-67
2023/03/20 13:22:31;;;;;;;;;;;;;;;22.59;23.44;100362.72;5337997;32;34784;-63
2023/03/20 13:26:03;;;;;;;;;;;;;;;22.05;23.85;100359.44;5357781;32;34630;-75
2023/03/20 13:29:14;;;;;;;;;;;;;;;23.17;22.73;100358.31;5350847;32;34860;-78
2023/03/20 13:32:22;;;;;;;;;;;;;;;23.26;22.42;100355.78;5357237;32;46688;-64
2023/03/20 13:35:29;;;;;;;;;;;;;;;23.61;22.28;100353.34;5367511;32;35327;-69
2023/03/20 13:38:36;;;;;;;;;;;;;;;24.09;21.79;100356.88;5347915;32;34780;-65
2023/03/20 13:41:38;;;;;;;;;;;;;;;23.34;22.92;100348.72;5361937;32;37621;-73
2023/03/20 13:44:40;;;;;;;;;;;;;;;21.67;24.73;100359.22;5350527;32;36716;-81
2023/03/20 13:47:42;;;;;;;;;;;;;;;21.92;24.59;100353.47;5358380;32;34731;-78
2023/03/20 13:50:52;;;;;;;;;;;;;;;21.05;25.81;100336.81;5385296;32;36799;-66
2023/03/20 13:54:10;;;;;;;;;;;;;;;20.71;26.47;100344.94;5358958;32;36178;-60
2023/03/20 13:57:40;;;;;;;;;;;;;;;21.57;25.44;100354.66;5384943;32;44690;-65
2023/03/20 14:00:48;;;;;;;;;;;;;;;20.64;26.74;100343.75;5368413;32;44749;-86
2023/03/20 14:03:50;;;;;;;;;;;;;;;20.60;26.74;100336.09;5354488;32;34746;-73
2023/03/20 14:06:53;;;;;;;;;;;;;;;20.33;27.26;100345.34;5359214;32;36316;-62
2023/03/20 14:12:09;;;;;;;;;;;;;;;20.34;27.82;100339.03;5417238;32;926491;-87
2023/03/20 14:15:11;;;;;;;;;;;;;;;20.88;27.01;100340.91;5429340;32;33879;-65
2023/03/20 14:18:14;;;;;;;;;;;;;;;20.81;27.12;100340.56;5428167;32;35972;-63
2023/03/20 14:21:20;;;;;;;;;;;;;;;20.78;26.99;100337.28;5419192;32;35703;-62
2023/03/20 14:24:22;;;;;;;;;;;;;;;21.08;26.85;100340.09;5427589;32;33928;-59
2023/03/20 14:27:25;;;;;;;;;;;;;;;21.00;27.10;100341.72;5433514;32;35390;-60
2023/03/20 14:30:45;;;;;;;;;;;;;;;20.48;27.92;100332.63;5414064;32;46940;-75
2023/03/20 14:33:52;;;;;;;;;;;;;;;20.67;27.79;100335.47;5427034;32;33942;-77
2023/03/20 14:36:58;;;;;;;;;;;;;;;19.83;29.15;100331.53;5432214;32;34561;-70
2023/03/20 14:40:12;;;;;;;;;;;;;;;19.57;29.70;100324.69;5437409;32;34671;-59
2023/03/20 14:43:31;;;;;;;;;;;;;;;20.35;28.91;100331.87;5435087;32;44576;-65
2023/03/20 14:46:42;;;;;;;;;;;;;;;19.69;29.80;100334.44;5402277;32;34028;-74
2023/03/20 14:49:49;;;;;;;;;;;;;;;19.24;30.66;100338.78;5443162;32;43115;-81
2023/03/20 14:53:15;;;;;;;;;;;;;;;19.47;30.64;100335.22;5431147;32;35352;-85
2023/03/20 14:56:16;;;;;;;;;;;;;;;19.48;30.72;100331.59;5427300;32;44652;-88
2023/03/20 14:59:19;;;;;;;;;;;;;;;19.88;30.17;100334.69;5420657;32;35343;-67
2023/03/20 15:02:25;;;;;;;;;;;;;;;19.79;30.37;100332.78;5423994;32;34158;-61
2023/03/20 15:05:28;;;;;;;;;;;;;;;20.14;29.71;100305.94;5412814;32;34066;-69
2023/03/20 15:08:31;;;;;;;;;;;;;;;20.30;29.69;100324.25;5390250;32;33920;-70
2023/03/20 15:11:33;;;;;;;;;;;;;;;20.41;29.56;100326.88;5406329;32;34135;-61
2023/03/20 15:14:40;;;;;;;;;;;;;;;20.04;30.37;100329.03;5407072;32;34695;-74
2023/03/20 15:17:46;;;;;;;;;;;;;;;19.93;30.27;100321.00;5413192;32;46032;-64
2023/03/20 15:20:48;;;;;;;;;;;;;;;20.18;30.03;100322.56;5416460;32;34285;-62
2023/03/20 15:23:50;;;;;;;;;;;;;;;19.39;31.34;100317.16;5401216;32;36853;-72
2023/03/20 15:27:01;;;;;;;;;;;;;;;20.01;30.55;100321.25;5397045;32;34245;-60
2023/03/20 15:30:03;;;;;;;;;;;;;;;19.97;30.61;100330.47;5383027;32;34113;-61
2023/03/20 15:33:06;;;;;;;;;;;;;;;19.83;30.87;100318.22;5406459;32;35804;-75
2023/03/20 15:36:09;;;;;;;;;;;;;;;19.71;31.11;100321.87;5396761;32;44821;-71
2023/03/20 15:39:12;;;;;;;;;;;;;;;19.96;30.85;100320.75;5385339;32;34558;-78
2023/03/20 15:42:15;;;;;;;;;;;;;;;20.16;30.63;100321.87;5406182;32;34280;-64
2023/03/20 15:45:33;;;;;;;;;;;;;;;19.65;31.35;100319.66;5384345;32;35324;-64
2023/03/20 15:48:37;;;;;;;;;;;;;;;19.99;30.99;100324.03;5412934;32;33927;-63
2023/03/20 15:51:39;;;;;;;;;;;;;;;19.64;31.46;100313.50;5387837;32;44667;-61